Time;durP1;ratioP1;P1;durP2;ratioP2;P2;SDS_P1;SDS_P2;PMS_P1;PMS_P2;Temp;Humidity;BMP_temperature;BMP_pressure;BME280_temperature;BME280_humidity;BME280_pressure;Samples;Min_cycle;Max_cycle;Signal;HPM_P1;HPM_P2
2023/07/07 00:02:23;;;;;;;8.80;2.58;;;;;;;;;;5002159;28;20086;-68
2023/07/07 00:04:49;;;;;;;9.07;2.63;;;;;;;;;;4999703;28;20305;-68
2023/07/07 00:07:16;;;;;;;6.75;2.45;;;;;;;;;;5000927;28;20067;-68
2023/07/07 00:09:42;;;;;;;9.30;2.92;;;;;;;;;;4997962;28;20025;-68
2023/07/07 00:12:08;;;;;;;7.28;2.83;;;;;;;;;;5002097;28;20529;-67
2023/07/07 00:14:34;;;;;;;8.88;2.80;;;;;;;;;;4996252;28;20087;-68
2023/07/07 00:17:01;;;;;;;9.07;3.00;;;;;;;;;;4997672;28;20807;-68
2023/07/07 00:19:34;;;;;;;7.20;2.40;;;;;;;;;;5009053;28;20025;-68
2023/07/07 00:22:01;;;;;;;8.60;2.90;;;;;;;;;;4996068;28;20401;-68
2023/07/07 00:24:27;;;;;;;7.18;2.88;;;;;;;;;;5002978;28;20341;-67
2023/07/07 00:26:54;;;;;;;7.95;2.60;;;;;;;;;;4998141;28;20322;-69
2023/07/07 00:29:20;;;;;;;6.78;2.70;;;;;;;;;;5000930;28;20026;-69
2023/07/07 00:31:46;;;;;;;8.10;2.83;;;;;;;;;;4997807;28;20037;-70
2023/07/07 00:34:12;;;;;;;8.20;2.60;;;;;;;;;;5003201;28;20036;-69
2023/07/07 00:36:38;;;;;;;7.55;2.78;;;;;;;;;;5000431;28;20457;-69
2023/07/07 00:39:04;;;;;;;10.82;3.25;;;;;;;;;;4998873;28;20029;-69
2023/07/07 00:41:30;;;;;;;9.80;3.00;;;;;;;;;;5003364;28;20045;-69
2023/07/07 00:44:07;;;;;;;7.70;2.70;;;;;;;;;;5002952;28;20033;-68
2023/07/07 00:46:34;;;;;;;8.57;2.70;;;;;;;;;;5000238;28;20037;-69
2023/07/07 00:49:02;;;;;;;8.35;2.88;;;;;;;;;;5003346;28;20036;-68
2023/07/07 00:51:34;;;;;;;6.95;2.35;;;;;;;;;;5002668;28;20443;-68
2023/07/07 00:54:04;;;;;;;10.00;2.72;;;;;;;;;;4999035;28;20034;-68
2023/07/07 00:56:33;;;;;;;6.97;2.50;;;;;;;;;;5007648;28;20093;-68
2023/07/07 00:59:01;;;;;;;6.97;2.55;;;;;;;;;;4994977;28;20034;-68
2023/07/07 01:01:27;;;;;;;7.65;2.40;;;;;;;;;;5002770;28;20029;-68
2023/07/07 01:03:55;;;;;;;7.63;2.30;;;;;;;;;;5003053;28;20468;-68
2023/07/07 01:06:24;;;;;;;7.05;2.30;;;;;;;;;;5001468;28;20037;-68
2023/07/07 01:08:57;;;;;;;8.13;2.58;;;;;;;;;;5001420;28;20056;-68
2023/07/07 01:11:23;;;;;;;6.40;2.33;;;;;;;;;;4997381;28;20116;-67
2023/07/07 01:13:49;;;;;;;6.78;2.30;;;;;;;;;;4995698;28;20029;-67
2023/07/07 01:16:20;;;;;;;6.75;2.25;;;;;;;;;;4991683;28;20207;-67
2023/07/07 01:18:46;;;;;;;5.50;2.10;;;;;;;;;;5002524;28;20514;-67
2023/07/07 01:21:39;;;;;;;7.78;2.28;;;;;;;;;;5001087;28;21677;-67
2023/07/07 01:24:18;;;;;;;6.07;1.92;;;;;;;;;;5002050;28;20037;-69
2023/07/07 01:27:03;;;;;;;6.10;1.80;;;;;;;;;;5001729;28;20146;-69
2023/07/07 01:29:32;;;;;;;8.02;2.10;;;;;;;;;;5004086;28;20026;-69
2023/07/07 01:32:00;;;;;;;5.47;1.85;;;;;;;;;;5001535;28;20036;-69
2023/07/07 01:34:27;;;;;;;6.78;1.85;;;;;;;;;;5004430;28;20171;-68
2023/07/07 01:36:54;;;;;;;5.13;1.90;;;;;;;;;;5000003;28;20087;-67
2023/07/07 01:39:20;;;;;;;6.30;1.90;;;;;;;;;;4997108;28;20487;-67
2023/07/07 01:41:46;;;;;;;5.68;1.88;;;;;;;;;;5003097;28;20131;-67
2023/07/07 01:44:20;;;;;;;8.07;2.10;;;;;;;;;;4998976;28;20037;-67
2023/07/07 01:47:00;;;;;;;4.75;1.73;;;;;;;;;;4999043;28;20483;-67
2023/07/07 01:49:32;;;;;;;4.93;1.70;;;;;;;;;;5001047;28;20052;-67
2023/07/07 01:52:07;;;;;;;6.28;2.22;;;;;;;;;;4997843;28;20041;-68
2023/07/07 01:54:35;;;;;;;6.05;2.10;;;;;;;;;;5001825;28;20032;-67
2023/07/07 01:57:02;;;;;;;5.72;1.80;;;;;;;;;;4997941;28;20875;-68
2023/07/07 01:59:29;;;;;;;5.07;1.80;;;;;;;;;;5001567;28;20022;-68
2023/07/07 02:01:55;;;;;;;6.00;1.85;;;;;;;;;;4993472;28;20103;-67
2023/07/07 02:04:22;;;;;;;7.30;2.03;;;;;;;;;;5004352;28;20338;-67
2023/07/07 02:06:48;;;;;;;5.28;1.90;;;;;;;;;;4998157;28;20144;-70
2023/07/07 02:09:14;;;;;;;4.80;1.80;;;;;;;;;;4999361;28;20113;-69
2023/07/07 02:11:41;;;;;;;5.47;1.92;;;;;;;;;;5001690;28;20045;-67
2023/07/07 02:14:07;;;;;;;6.30;1.90;;;;;;;;;;4997706;28;20033;-68
2023/07/07 02:16:33;;;;;;;5.75;1.80;;;;;;;;;;4998679;28;20032;-69
2023/07/07 02:18:59;;;;;;;5.47;2.00;;;;;;;;;;4995108;28;20751;-69
2023/07/07 02:21:25;;;;;;;6.43;2.10;;;;;;;;;;5004622;28;20060;-68
2023/07/07 02:23:51;;;;;;;5.15;1.88;;;;;;;;;;4996563;28;20056;-69
2023/07/07 02:26:18;;;;;;;6.93;2.05;;;;;;;;;;4999075;28;20066;-68
2023/07/07 02:28:45;;;;;;;6.53;1.90;;;;;;;;;;5005493;28;20317;-68
2023/07/07 02:31:11;;;;;;;6.43;2.03;;;;;;;;;;4997411;28;20029;-69
2023/07/07 02:33:38;;;;;;;5.53;1.80;;;;;;;;;;4998963;28;20017;-68
2023/07/07 02:36:05;;;;;;;4.13;1.50;;;;;;;;;;4999631;28;20128;-68
2023/07/07 02:38:32;;;;;;;4.93;1.70;;;;;;;;;;4999750;28;20040;-68
2023/07/07 02:40:58;;;;;;;5.30;1.88;;;;;;;;;;4997350;28;20461;-69
2023/07/07 02:43:25;;;;;;;3.90;1.40;;;;;;;;;;5003402;28;20396;-68
2023/07/07 02:45:51;;;;;;;4.88;1.52;;;;;;;;;;4999590;28;20065;-69
2023/07/07 02:48:19;;;;;;;4.55;1.60;;;;;;;;;;4997608;28;20029;-68
2023/07/07 02:50:46;;;;;;;5.63;1.77;;;;;;;;;;5007093;28;20305;-68
2023/07/07 02:53:12;;;;;;;4.35;1.65;;;;;;;;;;4997160;28;20572;-68
2023/07/07 02:55:38;;;;;;;3.80;1.45;;;;;;;;;;5000571;28;20403;-69
2023/07/07 02:58:04;;;;;;;5.13;1.73;;;;;;;;;;4996693;28;20229;-68
2023/07/07 03:00:30;;;;;;;4.18;1.70;;;;;;;;;;5006622;28;20030;-69
2023/07/07 03:02:57;;;;;;;5.30;1.60;;;;;;;;;;5001472;28;20040;-68
2023/07/07 03:05:23;;;;;;;3.67;1.60;;;;;;;;;;4994317;28;20029;-69
2023/07/07 03:07:49;;;;;;;7.03;2.03;;;;;;;;;;5002073;28;20739;-68
2023/07/07 03:10:15;;;;;;;6.05;2.20;;;;;;;;;;4997689;28;20348;-69
2023/07/07 03:12:41;;;;;;;5.43;1.95;;;;;;;;;;5001780;28;20466;-67
2023/07/07 03:15:08;;;;;;;4.93;1.88;;;;;;;;;;5001481;28;20666;-67
2023/07/07 03:17:35;;;;;;;5.25;1.95;;;;;;;;;;5001372;28;20021;-67
2023/07/07 03:20:01;;;;;;;6.40;2.20;;;;;;;;;;5001891;28;20839;-67
2023/07/07 03:22:29;;;;;;;5.65;2.10;;;;;;;;;;5010007;28;20028;-68
2023/07/07 03:24:55;;;;;;;5.65;1.98;;;;;;;;;;4995050;28;20033;-67
2023/07/07 03:27:22;;;;;;;7.57;2.15;;;;;;;;;;5005641;28;20036;-67
2023/07/07 03:29:50;;;;;;;6.63;2.13;;;;;;;;;;5006009;28;20121;-68
2023/07/07 03:32:16;;;;;;;7.28;2.40;;;;;;;;;;5000612;28;20325;-68
2023/07/07 03:34:42;;;;;;;5.47;2.08;;;;;;;;;;5001415;28;20052;-68
2023/07/07 03:37:08;;;;;;;6.85;2.30;;;;;;;;;;5003225;28;20487;-68
2023/07/07 03:39:35;;;;;;;6.10;1.85;;;;;;;;;;5001731;28;20056;-68
2023/07/07 03:42:01;;;;;;;5.47;2.00;;;;;;;;;;4997938;28;20072;-68
2023/07/07 03:44:27;;;;;;;5.20;1.63;;;;;;;;;;4999847;28;20492;-68
2023/07/07 03:46:53;;;;;;;5.90;1.98;;;;;;;;;;5004287;28;20029;-68
2023/07/07 03:49:20;;;;;;;5.88;2.05;;;;;;;;;;5003262;28;20071;-68
2023/07/07 03:51:46;;;;;;;6.65;1.85;;;;;;;;;;5009093;28;20391;-68
2023/07/07 03:54:12;;;;;;;5.40;2.00;;;;;;;;;;5006998;28;20059;-68
2023/07/07 03:56:38;;;;;;;7.70;2.00;;;;;;;;;;5002018;28;20152;-69
2023/07/07 03:59:04;;;;;;;6.25;1.95;;;;;;;;;;4996630;28;20446;-69
2023/07/07 04:01:30;;;;;;;6.13;2.03;;;;;;;;;;5008221;28;20120;-68
2023/07/07 04:03:57;;;;;;;5.28;2.00;;;;;;;;;;5006536;28;20036;-68
2023/07/07 04:06:23;;;;;;;5.80;2.17;;;;;;;;;;5005260;28;20017;-68
2023/07/07 04:08:50;;;;;;;7.03;2.20;;;;;;;;;;5007566;28;20094;-69
2023/07/07 04:11:17;;;;;;;6.60;2.25;;;;;;;;;;5001673;28;20038;-69
2023/07/07 04:13:44;;;;;;;5.78;2.22;;;;;;;;;;5007151;28;20043;-68
2023/07/07 04:16:11;;;;;;;7.32;2.40;;;;;;;;;;5002405;28;20482;-68
2023/07/07 04:18:38;;;;;;;6.85;2.20;;;;;;;;;;5001576;28;20543;-69
2023/07/07 04:21:06;;;;;;;7.82;2.28;;;;;;;;;;4997939;28;20037;-68
2023/07/07 04:23:33;;;;;;;6.22;2.22;;;;;;;;;;5006253;28;20546;-68
2023/07/07 04:25:59;;;;;;;6.35;2.10;;;;;;;;;;4998388;28;21577;-68
2023/07/07 04:28:26;;;;;;;7.63;2.22;;;;;;;;;;5002437;28;20100;-68
2023/07/07 04:30:53;;;;;;;7.18;2.28;;;;;;;;;;4995947;28;20319;-68
2023/07/07 04:33:19;;;;;;;6.45;2.20;;;;;;;;;;5003587;28;20033;-68
2023/07/07 04:35:45;;;;;;;5.40;1.90;;;;;;;;;;5000663;28;20195;-68
2023/07/07 04:38:11;;;;;;;6.75;2.30;;;;;;;;;;5000517;28;20033;-67
2023/07/07 04:40:37;;;;;;;7.10;2.30;;;;;;;;;;5002179;28;20050;-68
2023/07/07 04:43:03;;;;;;;7.15;2.20;;;;;;;;;;4995646;28;20068;-68
2023/07/07 04:45:33;;;;;;;5.70;2.00;;;;;;;;;;4999535;28;20400;-68
2023/07/07 04:47:59;;;;;;;9.00;2.50;;;;;;;;;;4992513;28;20501;-68
2023/07/07 04:50:25;;;;;;;6.78;2.38;;;;;;;;;;4998037;28;20076;-68
2023/07/07 04:52:51;;;;;;;10.55;2.50;;;;;;;;;;4995867;28;20473;-69
2023/07/07 04:55:18;;;;;;;7.10;2.30;;;;;;;;;;4993886;28;20029;-68
2023/07/07 04:57:44;;;;;;;6.97;2.20;;;;;;;;;;4994665;28;20033;-68
2023/07/07 05:00:10;;;;;;;7.07;2.28;;;;;;;;;;4988128;28;20156;-69
2023/07/07 05:02:36;;;;;;;6.30;2.17;;;;;;;;;;4996676;28;20026;-68
2023/07/07 05:05:03;;;;;;;7.20;2.42;;;;;;;;;;4990846;28;20067;-68
2023/07/07 05:07:29;;;;;;;8.75;2.40;;;;;;;;;;5001716;28;20036;-69
2023/07/07 05:09:56;;;;;;;9.15;2.35;;;;;;;;;;5000801;28;20033;-68
2023/07/07 05:12:22;;;;;;;7.25;2.60;;;;;;;;;;5003081;28;20600;-69
2023/07/07 05:14:48;;;;;;;8.63;2.83;;;;;;;;;;4999705;28;20041;-68
2023/07/07 05:17:14;;;;;;;6.45;2.53;;;;;;;;;;4996229;28;20030;-67
2023/07/07 05:19:40;;;;;;;9.88;2.50;;;;;;;;;;5005359;28;20396;-68
2023/07/07 05:22:07;;;;;;;7.70;2.72;;;;;;;;;;4996604;28;20468;-68
2023/07/07 05:24:33;;;;;;;9.50;2.75;;;;;;;;;;5002338;28;20420;-68
2023/07/07 05:26:59;;;;;;;8.30;2.70;;;;;;;;;;4998409;28;20502;-68
2023/07/07 05:29:25;;;;;;;12.35;2.92;;;;;;;;;;5002109;28;20087;-68
2023/07/07 05:31:53;;;;;;;8.15;2.72;;;;;;;;;;5005802;28;20034;-68
2023/07/07 05:34:21;;;;;;;7.65;2.83;;;;;;;;;;4995835;28;20054;-68
2023/07/07 05:36:47;;;;;;;11.45;2.90;;;;;;;;;;4982373;28;20040;-68
2023/07/07 05:39:14;;;;;;;8.85;2.80;;;;;;;;;;4994585;28;20296;-68
2023/07/07 05:41:40;;;;;;;9.73;2.60;;;;;;;;;;5004858;28;20041;-68
2023/07/07 05:44:06;;;;;;;9.45;2.60;;;;;;;;;;4989672;28;20044;-68
2023/07/07 05:46:32;;;;;;;7.97;2.40;;;;;;;;;;4991116;28;20404;-68
2023/07/07 05:48:58;;;;;;;7.82;2.50;;;;;;;;;;4988228;28;20454;-68
2023/07/07 05:51:24;;;;;;;7.15;2.50;;;;;;;;;;4996432;28;20029;-68
2023/07/07 05:53:51;;;;;;;6.45;2.33;;;;;;;;;;5007096;28;20435;-68
2023/07/07 05:56:21;;;;;;;12.57;2.65;;;;;;;;;;5001553;28;20731;-67
2023/07/07 05:58:48;;;;;;;8.38;2.60;;;;;;;;;;5007616;28;20037;-68
2023/07/07 06:01:14;;;;;;;7.50;2.70;;;;;;;;;;5005642;28;20034;-70
2023/07/07 06:03:41;;;;;;;7.90;2.90;;;;;;;;;;5003667;28;20537;-68
2023/07/07 06:06:07;;;;;;;10.57;2.55;;;;;;;;;;5009718;28;20106;-67
2023/07/07 06:08:33;;;;;;;7.85;2.53;;;;;;;;;;5006869;28;20017;-67
2023/07/07 06:10:59;;;;;;;7.25;2.58;;;;;;;;;;5002384;28;20488;-70
2023/07/07 06:13:27;;;;;;;12.32;3.13;;;;;;;;;;4978528;28;20430;-70
2023/07/07 06:15:54;;;;;;;9.77;3.45;;;;;;;;;;4973906;28;20026;-68
2023/07/07 06:18:20;;;;;;;7.53;2.53;;;;;;;;;;4975280;28;20140;-67
2023/07/07 06:20:50;;;;;;;6.82;2.45;;;;;;;;;;4975546;28;20044;-68
2023/07/07 06:23:16;;;;;;;7.40;2.40;;;;;;;;;;4975356;28;20072;-67
2023/07/07 06:25:43;;;;;;;10.23;2.90;;;;;;;;;;4975182;28;20059;-68
2023/07/07 06:28:09;;;;;;;19.20;3.63;;;;;;;;;;4975748;28;20029;-68
2023/07/07 06:30:35;;;;;;;11.90;3.50;;;;;;;;;;4977626;28;20543;-69
2023/07/07 06:33:02;;;;;;;9.27;2.78;;;;;;;;;;4974940;28;20049;-68
2023/07/07 06:35:29;;;;;;;8.20;2.58;;;;;;;;;;4975565;28;20510;-69
2023/07/07 06:37:55;;;;;;;8.63;2.88;;;;;;;;;;4974032;28;20271;-69
2023/07/07 06:40:21;;;;;;;7.30;2.55;;;;;;;;;;4977615;28;20874;-68
2023/07/07 06:42:51;;;;;;;7.43;2.50;;;;;;;;;;4975966;28;20041;-69
2023/07/07 06:45:17;;;;;;;9.13;2.60;;;;;;;;;;4978818;28;20116;-68
2023/07/07 06:47:43;;;;;;;9.70;3.05;;;;;;;;;;4981531;28;20063;-69
2023/07/07 06:50:15;;;;;;;9.20;3.20;;;;;;;;;;5008327;28;20030;-69
2023/07/07 06:52:41;;;;;;;6.38;2.40;;;;;;;;;;5014712;28;20044;-69
2023/07/07 06:55:07;;;;;;;9.02;2.60;;;;;;;;;;5000878;28;20037;-68
2023/07/07 06:57:33;;;;;;;8.95;3.03;;;;;;;;;;5012829;28;20525;-68
2023/07/07 06:59:59;;;;;;;12.57;3.97;;;;;;;;;;5003837;28;20579;-69
2023/07/07 07:02:26;;;;;;;12.10;3.30;;;;;;;;;;5013305;28;20025;-68
2023/07/07 07:04:52;;;;;;;9.07;3.00;;;;;;;;;;5017565;28;20025;-68
2023/07/07 07:07:18;;;;;;;7.50;2.60;;;;;;;;;;5002861;28;20030;-68
2023/07/07 07:09:44;;;;;;;9.05;3.20;;;;;;;;;;5014561;28;20119;-68
2023/07/07 07:12:10;;;;;;;7.05;2.85;;;;;;;;;;5006764;28;20358;-68
2023/07/07 07:14:36;;;;;;;14.75;3.42;;;;;;;;;;5013019;28;20036;-68
2023/07/07 07:17:02;;;;;;;8.18;2.60;;;;;;;;;;5005455;28;20191;-68
2023/07/07 07:19:29;;;;;;;6.18;2.45;;;;;;;;;;5016570;28;20035;-68
2023/07/07 07:21:55;;;;;;;8.88;2.65;;;;;;;;;;5007093;28;20038;-69
2023/07/07 07:24:24;;;;;;;8.45;2.45;;;;;;;;;;5003324;28;20484;-68
2023/07/07 07:26:50;;;;;;;10.95;3.00;;;;;;;;;;5010175;28;20532;-69
2023/07/07 07:29:16;;;;;;;9.43;2.80;;;;;;;;;;5008551;28;20258;-69
2023/07/07 07:31:43;;;;;;;14.75;3.58;;;;;;;;;;5012397;28;20021;-69
2023/07/07 07:34:22;;;;;;;11.13;3.40;;;;;;;;;;5008869;28;20037;-69
2023/07/07 07:36:48;;;;;;;11.55;2.85;;;;;;;;;;5009276;28;20236;-67
2023/07/07 07:39:15;;;;;;;14.35;2.85;;;;;;;;;;5002995;28;20080;-67
2023/07/07 07:41:42;;;;;;;12.30;3.25;;;;;;;;;;5007165;28;20123;-68
2023/07/07 07:44:08;;;;;;;11.43;2.88;;;;;;;;;;5008934;28;20066;-67
2023/07/07 07:46:34;;;;;;;9.88;2.70;;;;;;;;;;5011090;28;20029;-70
2023/07/07 07:49:01;;;;;;;9.90;2.67;;;;;;;;;;5007833;28;20060;-68
2023/07/07 07:51:27;;;;;;;9.85;2.80;;;;;;;;;;5013264;28;20032;-68
2023/07/07 07:53:53;;;;;;;8.57;2.85;;;;;;;;;;5005851;28;20025;-69
2023/07/07 07:56:20;;;;;;;8.88;2.70;;;;;;;;;;5006639;28;20026;-69
2023/07/07 07:58:47;;;;;;;11.68;3.00;;;;;;;;;;5008037;28;20377;-69
2023/07/07 08:01:13;;;;;;;9.18;2.38;;;;;;;;;;5006149;28;22845;-69
2023/07/07 08:03:39;;;;;;;9.85;2.88;;;;;;;;;;5007573;28;20080;-69
2023/07/07 08:06:05;;;;;;;9.18;2.70;;;;;;;;;;5011299;28;20140;-68
2023/07/07 08:08:31;;;;;;;12.20;2.92;;;;;;;;;;5008808;28;20022;-69
2023/07/07 08:10:57;;;;;;;10.98;2.90;;;;;;;;;;5004416;28;20040;-68
2023/07/07 08:13:23;;;;;;;8.57;2.50;;;;;;;;;;5005208;28;20033;-68
2023/07/07 08:15:49;;;;;;;9.10;2.88;;;;;;;;;;5009801;28;20674;-69
2023/07/07 08:18:16;;;;;;;12.70;2.95;;;;;;;;;;5008539;28;20061;-68
2023/07/07 08:20:42;;;;;;;9.90;2.88;;;;;;;;;;5014095;28;20168;-69
2023/07/07 08:23:08;;;;;;;10.43;2.60;;;;;;;;;;5005624;28;20133;-68
2023/07/07 08:25:35;;;;;;;9.10;2.65;;;;;;;;;;5016321;28;20029;-69
2023/07/07 08:28:01;;;;;;;8.45;2.65;;;;;;;;;;5010867;28;20025;-69
2023/07/07 08:30:27;;;;;;;12.38;2.80;;;;;;;;;;5012914;28;20094;-69
2023/07/07 08:32:54;;;;;;;9.98;2.60;;;;;;;;;;5011224;28;20052;-67
2023/07/07 08:35:21;;;;;;;9.65;2.67;;;;;;;;;;5018111;28;20036;-67
2023/07/07 08:37:47;;;;;;;7.47;2.22;;;;;;;;;;5005941;28;20025;-69
2023/07/07 08:40:16;;;;;;;9.05;2.35;;;;;;;;;;5005782;28;20049;-69
2023/07/07 08:42:42;;;;;;;8.98;2.60;;;;;;;;;;5009124;28;20072;-68
2023/07/07 08:45:14;;;;;;;8.60;2.45;;;;;;;;;;5009057;28;20361;-69
2023/07/07 08:47:46;;;;;;;9.63;2.50;;;;;;;;;;5014199;28;20028;-68
2023/07/07 08:50:12;;;;;;;11.80;3.13;;;;;;;;;;5014529;28;20063;-68
2023/07/07 08:52:50;;;;;;;9.05;2.38;;;;;;;;;;5010152;28;20527;-70
2023/07/07 08:55:35;;;;;;;12.45;2.85;;;;;;;;;;5003436;28;20589;-69
2023/07/07 08:58:06;;;;;;;8.90;2.83;;;;;;;;;;5004116;28;20033;-68
2023/07/07 09:00:41;;;;;;;11.15;2.70;;;;;;;;;;5017405;28;20116;-69
2023/07/07 09:03:30;;;;;;;14.52;2.80;;;;;;;;;;4994725;28;20451;-68
2023/07/07 09:06:02;;;;;;;11.10;2.80;;;;;;;;;;5002758;28;20036;-69
2023/07/07 09:08:32;;;;;;;9.77;2.83;;;;;;;;;;5006159;28;20022;-69
2023/07/07 09:11:18;;;;;;;9.88;2.78;;;;;;;;;;4999765;28;20037;-68
2023/07/07 09:13:45;;;;;;;13.40;2.70;;;;;;;;;;5007620;28;20467;-69
2023/07/07 09:16:15;;;;;;;6.88;2.10;;;;;;;;;;4996968;28;20693;-69
2023/07/07 09:18:48;;;;;;;8.55;2.50;;;;;;;;;;5000997;28;20025;-69
2023/07/07 09:21:23;;;;;;;13.82;3.30;;;;;;;;;;5001203;28;20679;-69
2023/07/07 09:23:54;;;;;;;11.10;2.70;;;;;;;;;;5005850;28;20423;-68
2023/07/07 09:26:21;;;;;;;10.55;2.80;;;;;;;;;;5002998;28;20123;-69
2023/07/07 09:28:50;;;;;;;8.80;2.88;;;;;;;;;;5003587;28;20526;-68
2023/07/07 09:31:16;;;;;;;7.97;2.28;;;;;;;;;;4997107;28;20554;-69
2023/07/07 09:33:42;;;;;;;11.80;2.65;;;;;;;;;;5002070;28;20129;-69
2023/07/07 09:36:29;;;;;;;8.32;2.20;;;;;;;;;;4996548;28;20029;-69
2023/07/07 09:38:58;;;;;;;7.20;2.42;;;;;;;;;;4997627;28;20579;-69
2023/07/07 09:41:47;;;;;;;8.68;2.65;;;;;;;;;;5002181;28;20469;-69
2023/07/07 09:44:16;;;;;;;10.90;2.70;;;;;;;;;;4997063;28;20873;-69
2023/07/07 09:46:48;;;;;;;8.65;2.47;;;;;;;;;;5004774;28;20058;-68
2023/07/07 09:49:35;;;;;;;10.65;2.67;;;;;;;;;;4999286;28;20116;-68
2023/07/07 09:52:19;;;;;;;9.07;2.38;;;;;;;;;;4998461;28;20091;-70
2023/07/07 09:54:46;;;;;;;8.15;2.22;;;;;;;;;;5002948;28;20073;-69
2023/07/07 09:57:22;;;;;;;10.27;2.58;;;;;;;;;;4998572;28;20029;-69
2023/07/07 09:59:51;;;;;;;10.20;2.90;;;;;;;;;;5003889;28;20037;-69
2023/07/07 10:02:19;;;;;;;10.80;2.70;;;;;;;;;;5002575;28;20042;-68
2023/07/07 10:04:48;;;;;;;9.55;2.33;;;;;;;;;;5002723;28;20040;-69
2023/07/07 10:07:15;;;;;;;11.15;2.78;;;;;;;;;;4999830;28;20106;-68
2023/07/07 10:09:42;;;;;;;8.85;2.15;;;;;;;;;;5001879;28;20038;-69
2023/07/07 10:12:13;;;;;;;8.73;2.35;;;;;;;;;;4998679;28;20137;-68
2023/07/07 10:14:39;;;;;;;9.55;2.90;;;;;;;;;;5002288;28;20459;-68
2023/07/07 10:17:06;;;;;;;9.52;2.70;;;;;;;;;;5002351;28;20345;-68
2023/07/07 10:19:45;;;;;;;9.80;3.10;;;;;;;;;;5001454;28;20045;-69
2023/07/07 10:22:12;;;;;;;8.45;2.28;;;;;;;;;;4998638;28;20033;-69
2023/07/07 10:24:38;;;;;;;11.65;2.83;;;;;;;;;;4999457;28;20120;-68
2023/07/07 10:27:05;;;;;;;9.98;2.50;;;;;;;;;;4998677;28;20254;-68
2023/07/07 10:29:39;;;;;;;9.35;2.75;;;;;;;;;;5004322;28;20030;-69
2023/07/07 10:32:05;;;;;;;8.73;2.47;;;;;;;;;;4998399;28;20586;-68
2023/07/07 10:34:38;;;;;;;8.50;2.47;;;;;;;;;;5003714;28;20044;-69
2023/07/07 10:37:18;;;;;;;8.95;2.50;;;;;;;;;;4999807;28;20412;-69
2023/07/07 10:39:48;;;;;;;8.77;2.65;;;;;;;;;;5000855;28;20381;-69
2023/07/07 10:42:14;;;;;;;10.18;2.53;;;;;;;;;;5002453;28;20119;-69
2023/07/07 10:44:42;;;;;;;12.32;2.50;;;;;;;;;;5005220;28;20032;-70
2023/07/07 10:47:09;;;;;;;7.32;2.40;;;;;;;;;;5001667;28;20204;-69
2023/07/07 10:49:35;;;;;;;10.82;2.42;;;;;;;;;;5003394;28;20029;-69
2023/07/07 10:52:12;;;;;;;9.68;2.40;;;;;;;;;;5004063;28;20033;-69
2023/07/07 10:54:41;;;;;;;10.23;2.60;;;;;;;;;;5007970;28;20033;-70
2023/07/07 10:57:31;;;;;;;13.63;2.42;;;;;;;;;;4999339;28;20064;-69
2023/07/07 11:00:03;;;;;;;7.72;2.35;;;;;;;;;;4997295;28;20073;-69
2023/07/07 11:02:44;;;;;;;10.27;2.53;;;;;;;;;;5003801;28;20132;-70
2023/07/07 11:05:29;;;;;;;7.63;2.13;;;;;;;;;;4998499;28;20730;-70
2023/07/07 11:08:15;;;;;;;11.68;2.35;;;;;;;;;;4997183;28;20043;-70
2023/07/07 11:10:48;;;;;;;7.82;2.38;;;;;;;;;;5002221;28;20368;-71
2023/07/07 11:13:29;;;;;;;8.73;2.58;;;;;;;;;;4998923;28;20646;-70
2023/07/07 11:16:07;;;;;;;8.38;2.20;;;;;;;;;;4996734;28;20438;-70
2023/07/07 11:18:37;;;;;;;13.45;2.67;;;;;;;;;;5003790;28;20088;-70
2023/07/07 11:21:11;;;;;;;8.10;2.42;;;;;;;;;;4990126;28;20369;-71
2023/07/07 11:23:37;;;;;;;;;;;;;;;;;;5004142;28;20133;-70
2023/07/07 11:26:17;;;;;;;7.70;2.30;;;;;;;;;;4996766;28;20328;-70
2023/07/07 11:29:01;;;;;;;10.15;2.55;;;;;;;;;;4999073;28;20644;-70
2023/07/07 11:31:38;;;;;;;7.35;2.17;;;;;;;;;;5003407;28;20052;-70
2023/07/07 11:34:20;;;;;;;7.90;2.38;;;;;;;;;;4998494;28;20374;-70
2023/07/07 11:36:53;;;;;;;7.63;2.85;;;;;;;;;;5006436;28;20184;-70
2023/07/07 11:39:41;;;;;;;9.52;2.90;;;;;;;;;;4997852;28;20440;-70
2023/07/07 11:42:13;;;;;;;8.43;2.60;;;;;;;;;;4998904;28;20394;-70
2023/07/07 11:44:39;;;;;;;10.43;3.20;;;;;;;;;;5007061;28;20527;-70
2023/07/07 11:47:20;;;;;;;10.90;2.55;;;;;;;;;;5001491;28;20124;-70
2023/07/07 11:49:53;;;;;;;7.90;2.45;;;;;;;;;;5001002;28;20032;-70
2023/07/07 11:52:20;;;;;;;9.50;2.80;;;;;;;;;;4999333;28;20365;-70
2023/07/07 11:54:55;;;;;;;6.60;2.25;;;;;;;;;;5002545;28;20060;-70
2023/07/07 11:57:27;;;;;;;7.32;2.40;;;;;;;;;;5000877;28;20095;-70
2023/07/07 11:59:54;;;;;;;8.57;2.45;;;;;;;;;;5004103;28;20026;-70
2023/07/07 12:02:25;;;;;;;7.72;2.63;;;;;;;;;;5009036;28;20133;-70
2023/07/07 12:04:53;;;;;;;9.48;2.40;;;;;;;;;;5005394;28;20505;-70
2023/07/07 12:07:41;;;;;;;7.20;2.60;;;;;;;;;;5004396;28;20084;-70
2023/07/07 12:10:20;;;;;;;10.52;2.55;;;;;;;;;;5000621;28;20102;-69
2023/07/07 12:13:04;;;;;;;9.52;2.60;;;;;;;;;;5001884;28;20045;-70
2023/07/07 12:15:32;;;;;;;11.40;2.72;;;;;;;;;;5007051;28;20032;-70
2023/07/07 12:18:04;;;;;;;12.35;3.00;;;;;;;;;;5006631;28;20051;-70
2023/07/07 12:20:33;;;;;;;9.30;2.80;;;;;;;;;;5000134;28;20025;-71
2023/07/07 12:23:01;;;;;;;10.75;2.80;;;;;;;;;;4999374;28;20036;-70
2023/07/07 12:25:28;;;;;;;8.30;2.75;;;;;;;;;;5005569;28;20041;-70
2023/07/07 12:27:55;;;;;;;11.27;2.83;;;;;;;;;;5003129;28;20317;-71
2023/07/07 12:30:30;;;;;;;9.18;2.28;;;;;;;;;;5007719;28;20507;-70
2023/07/07 12:32:57;;;;;;;9.65;2.55;;;;;;;;;;5001825;28;20032;-70
2023/07/07 12:35:30;;;;;;;8.50;2.53;;;;;;;;;;5001391;28;20759;-70
2023/07/07 12:37:57;;;;;;;8.55;2.42;;;;;;;;;;4999019;28;20744;-70
2023/07/07 12:40:23;;;;;;;9.13;2.50;;;;;;;;;;5003746;28;20049;-70
2023/07/07 12:43:07;;;;;;;10.45;2.58;;;;;;;;;;5004373;28;20514;-70
2023/07/07 12:45:33;;;;;;;7.35;2.45;;;;;;;;;;5007050;28;20438;-70
2023/07/07 12:48:02;;;;;;;8.98;2.63;;;;;;;;;;5000505;28;20073;-70
2023/07/07 12:50:30;;;;;;;9.35;2.47;;;;;;;;;;5001879;28;20658;-69
2023/07/07 12:53:03;;;;;;;8.95;2.50;;;;;;;;;;5002775;28;20140;-70
2023/07/07 12:55:29;;;;;;;7.18;2.60;;;;;;;;;;5004936;28;20075;-69
2023/07/07 12:58:08;;;;;;;10.27;3.40;;;;;;;;;;5006550;28;20632;-69
2023/07/07 13:00:44;;;;;;;9.52;3.25;;;;;;;;;;4998763;28;20087;-69
2023/07/07 13:03:10;;;;;;;6.68;2.30;;;;;;;;;;5001742;28;20041;-69
2023/07/07 13:05:57;;;;;;;8.65;2.67;;;;;;;;;;5003792;28;20537;-69
2023/07/07 13:08:37;;;;;;;11.35;2.80;;;;;;;;;;5005117;28;20035;-70
2023/07/07 13:11:15;;;;;;;8.88;2.50;;;;;;;;;;4999833;28;20073;-69
2023/07/07 13:13:45;;;;;;;8.48;2.70;;;;;;;;;;5001961;28;20037;-69
2023/07/07 13:16:12;;;;;;;8.70;2.53;;;;;;;;;;5000157;28;20033;-69
2023/07/07 13:18:38;;;;;;;7.65;2.60;;;;;;;;;;5003466;28;20030;-69
2023/07/07 13:21:05;;;;;;;7.93;2.28;;;;;;;;;;5002241;28;20033;-69
2023/07/07 13:23:31;;;;;;;10.40;2.58;;;;;;;;;;5001835;28;20479;-69
2023/07/07 13:25:57;;;;;;;9.07;2.53;;;;;;;;;;4996949;28;20574;-69
2023/07/07 13:28:25;;;;;;;9.18;2.63;;;;;;;;;;5008044;28;20086;-69
2023/07/07 13:30:55;;;;;;;10.75;2.83;;;;;;;;;;5002279;28;20226;-70
2023/07/07 13:33:23;;;;;;;6.13;2.42;;;;;;;;;;5007293;28;20037;-69
2023/07/07 13:35:51;;;;;;;7.32;2.35;;;;;;;;;;5002191;28;20041;-70
2023/07/07 13:38:21;;;;;;;9.23;2.40;;;;;;;;;;5003730;28;20034;-70
2023/07/07 13:40:48;;;;;;;8.02;2.35;;;;;;;;;;5005043;28;20054;-70
2023/07/07 13:43:35;;;;;;;6.82;2.20;;;;;;;;;;5001693;28;20041;-69
2023/07/07 13:46:24;;;;;;;8.15;2.30;;;;;;;;;;5000700;28;20032;-70
2023/07/07 13:48:54;;;;;;;7.93;2.53;;;;;;;;;;4999800;28;20049;-69
2023/07/07 13:51:24;;;;;;;8.55;2.40;;;;;;;;;;5007925;28;20030;-69
2023/07/07 13:53:50;;;;;;;9.15;2.60;;;;;;;;;;5002981;28;20052;-69
2023/07/07 13:56:16;;;;;;;9.07;2.50;;;;;;;;;;4999604;28;20142;-70
2023/07/07 13:58:44;;;;;;;10.18;2.75;;;;;;;;;;5002371;28;20026;-70
2023/07/07 14:01:17;;;;;;;9.63;2.78;;;;;;;;;;4998245;28;20674;-70
2023/07/07 14:03:47;;;;;;;8.27;2.60;;;;;;;;;;5006850;28;20042;-70
2023/07/07 14:06:17;;;;;;;8.75;2.65;;;;;;;;;;4998210;28;20700;-70
2023/07/07 14:08:44;;;;;;;10.63;2.70;;;;;;;;;;5003728;28;20152;-70
2023/07/07 14:11:18;;;;;;;10.23;3.03;;;;;;;;;;5003591;28;20032;-70
2023/07/07 14:13:44;;;;;;;11.25;3.20;;;;;;;;;;5005695;28;20041;-69
2023/07/07 14:16:19;;;;;;;9.10;2.55;;;;;;;;;;4999582;28;20631;-70
2023/07/07 14:18:54;;;;;;;11.30;2.45;;;;;;;;;;5004302;28;20065;-69
2023/07/07 14:21:22;;;;;;;9.02;2.70;;;;;;;;;;4998638;28;20030;-70
2023/07/07 14:23:50;;;;;;;8.88;2.75;;;;;;;;;;5004733;28;20175;-70
2023/07/07 14:26:17;;;;;;;9.50;2.60;;;;;;;;;;5004399;28;20036;-69
2023/07/07 14:28:44;;;;;;;9.23;2.55;;;;;;;;;;5007732;28;20364;-70
2023/07/07 14:31:11;;;;;;;10.18;2.83;;;;;;;;;;4996353;28;20108;-70
2023/07/07 14:33:40;;;;;;;11.57;3.28;;;;;;;;;;5001218;28;20095;-69
2023/07/07 14:36:16;;;;;;;15.13;3.10;;;;;;;;;;4997477;28;20236;-70
2023/07/07 14:38:46;;;;;;;8.93;2.83;;;;;;;;;;5005085;28;20033;-71
2023/07/07 14:41:23;;;;;;;9.55;2.70;;;;;;;;;;5002397;28;20372;-70
2023/07/07 14:43:49;;;;;;;9.40;2.92;;;;;;;;;;5007880;28;20037;-70
2023/07/07 14:46:29;;;;;;;9.50;2.40;;;;;;;;;;4998100;28;20033;-70
2023/07/07 14:49:06;;;;;;;11.50;3.20;;;;;;;;;;5003535;28;20277;-70
2023/07/07 14:51:41;;;;;;;8.75;2.92;;;;;;;;;;5005423;28;20026;-70
2023/07/07 14:54:13;;;;;;;10.05;2.85;;;;;;;;;;4994819;28;20268;-69